Time;durP1;ratioP1;P1;durP2;ratioP2;P2;SDS_P1;SDS_P2;PMS_P1;PMS_P2;Temp;Humidity;BMP_temperature;BMP_pressure;BME280_temperature;BME280_humidity;BME280_pressure;Samples;Min_cycle;Max_cycle;Signal;HPM_P1;HPM_P2
2022/06/19 00:02:01;;;;;;;5.20;4.40;;;;;;;17.75;70.95;97474.84;5069740;28;20228;-70
2022/06/19 00:04:28;;;;;;;5.80;5.00;;;;;;;17.70;71.06;97450.72;5068633;28;20201;-70
2022/06/19 00:06:56;;;;;;;7.50;4.57;;;;;;;17.98;70.20;97472.44;5068832;28;20423;-70
2022/06/19 00:09:26;;;;;;;6.40;5.10;;;;;;;18.03;69.87;97471.22;5068979;28;20250;-70
2022/06/19 00:11:55;;;;;;;5.90;5.13;;;;;;;18.05;69.36;97469.31;5068699;28;20198;-71
2022/06/19 00:14:24;;;;;;;7.87;5.80;;;;;;;18.08;68.85;97478.72;5069267;28;20208;-69
2022/06/19 00:16:51;;;;;;;8.53;6.07;;;;;;;17.96;69.38;97469.94;5068393;28;20205;-70
2022/06/19 00:19:19;;;;;;;8.97;6.97;;;;;;;17.88;69.64;97473.09;5069307;28;20193;-69
2022/06/19 00:21:47;;;;;;;7.07;6.00;;;;;;;17.92;69.50;97467.63;5067987;28;20256;-70
2022/06/19 00:24:14;;;;;;;7.10;6.27;;;;;;;17.87;69.63;97474.00;5068935;28;20281;-69
2022/06/19 00:26:41;;;;;;;6.53;5.93;;;;;;;17.79;69.63;97481.56;5068623;28;20230;-70
2022/06/19 00:29:08;;;;;;;7.13;6.00;;;;;;;17.82;69.76;97478.75;5068707;28;20605;-70
2022/06/19 00:31:35;;;;;;;5.77;5.20;;;;;;;17.94;69.27;97481.47;5069178;28;20191;-70
2022/06/19 00:34:03;;;;;;;7.63;5.33;;;;;;;17.74;68.96;97462.69;5067897;28;20207;-70
2022/06/19 00:36:30;;;;;;;5.60;4.70;;;;;;;17.44;70.09;97477.78;5051545;28;20201;-70
2022/06/19 00:38:57;;;;;;;10.47;5.40;;;;;;;17.38;71.18;97467.72;5067952;28;20191;-70
2022/06/19 00:41:30;;;;;;;7.30;6.07;;;;;;;17.36;71.89;97472.22;5068900;28;20260;-70
2022/06/19 00:44:06;;;;;;;5.80;5.07;;;;;;;17.32;71.31;97477.75;5068445;28;20195;-70
2022/06/19 00:46:55;;;;;;;9.10;6.07;;;;;;;16.52;73.98;97475.97;5067995;28;20624;-69
2022/06/19 00:49:28;;;;;;;7.77;5.43;;;;;;;16.60;74.20;97472.84;5068826;28;20203;-69
2022/06/19 00:52:01;;;;;;;;;;;;;;;16.83;73.10;97467.88;5067699;28;20200;-71
2022/06/19 00:54:28;;;;;;;;;;;;;;;16.64;73.38;97471.72;5069107;28;19974;-69
2022/06/19 00:56:55;;;;;;;;;;;;;;;16.09;74.35;97462.03;5068893;28;19927;-69
2022/06/19 00:59:22;;;;;;;;;;;;;;;16.11;74.52;97460.19;5068379;28;20354;-70
2022/06/19 01:01:49;;;;;;;;;;;;;;;16.22;74.36;97459.50;5069270;28;19924;-69
2022/06/19 01:04:26;;;;;;;7.40;5.27;;;;;;;15.95;74.46;97464.66;5067499;28;19920;-70
2022/06/19 01:06:54;;;;;;;6.77;4.80;;;;;;;15.91;74.76;97462.34;5068387;28;20234;-69
2022/06/19 01:09:21;;;;;;;;;;;;;;;16.10;74.25;97471.56;5067936;28;20676;-69
2022/06/19 01:11:48;;;;;;;;;;;;;;;16.02;74.05;97476.41;5068746;28;19927;-69
2022/06/19 01:14:20;;;;;;;6.93;4.90;;;;;;;16.15;74.14;97479.97;5068347;28;20062;-69
2022/06/19 01:16:47;;;;;;;7.10;5.80;;;;;;;16.35;73.18;97485.75;5067656;28;20673;-70
2022/06/19 01:19:23;;;;;;;5.77;5.00;;;;;;;16.66;72.37;97465.47;5068414;28;20204;-70
2022/06/19 01:22:08;;;;;;;7.93;5.23;;;;;;;16.91;71.47;97477.84;5067455;28;20197;-70
2022/06/19 01:24:57;;;;;;;8.40;5.47;;;;;;;16.49;72.46;97478.75;5068116;28;20240;-69
2022/06/19 01:30:13;;;;;;;6.73;5.03;;;;;;;16.69;72.21;97465.25;5067225;28;20200;-69
2022/06/19 01:32:44;;;;;;;5.40;4.90;;;;;;;16.77;71.87;97465.66;5068438;28;20200;-70
2022/06/19 01:35:12;;;;;;;6.77;4.80;;;;;;;16.80;71.60;97462.81;5067283;28;20672;-69
2022/06/19 01:37:42;;;;;;;5.47;4.73;;;;;;;16.58;71.91;97459.03;5068142;28;20669;-69
2022/06/19 01:40:36;;;;;;;7.13;5.00;;;;;;;16.55;72.33;97470.53;5067942;28;20254;-70
2022/06/19 01:43:05;;;;;;;6.53;4.90;;;;;;;16.57;72.19;97473.06;5063682;28;20201;-69
2022/06/19 01:45:32;;;;;;;6.23;5.17;;;;;;;16.58;72.45;97485.19;5068418;28;20223;-70
2022/06/19 01:48:01;;;;;;;6.17;4.67;;;;;;;16.74;71.38;97483.28;5067068;28;20614;-70
2022/06/19 01:50:30;;;;;;;5.40;4.63;;;;;;;16.84;71.38;97476.53;5068081;28;20216;-71
2022/06/19 01:53:07;;;;;;;5.00;4.50;;;;;;;17.05;70.61;97485.63;5067635;28;20653;-70
2022/06/19 01:55:34;;;;;;;6.43;4.83;;;;;;;17.06;70.00;97484.72;5067555;28;20247;-70
2022/06/19 01:58:01;;;;;;;7.20;5.13;;;;;;;16.85;71.13;97478.22;5068304;28;20199;-70
2022/06/19 02:00:31;;;;;;;4.80;4.40;;;;;;;16.78;71.76;97484.78;5066963;28;20202;-70
2022/06/19 02:03:05;;;;;;;5.53;4.70;;;;;;;16.60;72.04;97489.41;5067882;28;20303;-70
2022/06/19 02:05:34;;;;;;;5.27;4.77;;;;;;;16.55;72.24;97485.41;5067540;28;20201;-70
2022/06/19 02:08:02;;;;;;;6.97;4.90;;;;;;;16.60;71.85;97480.72;5068058;28;20192;-70
2022/06/19 02:10:29;;;;;;;6.67;5.20;;;;;;;16.63;72.24;97488.38;5068228;28;20208;-70
2022/06/19 02:13:01;;;;;;;8.10;4.93;;;;;;;16.45;72.43;97486.84;5067234;28;20288;-70
2022/06/19 02:15:50;;;;;;;7.10;5.00;;;;;;;16.49;72.61;97483.09;5054025;28;20204;-70
2022/06/19 02:18:23;;;;;;;6.63;4.77;;;;;;;16.53;72.74;97484.63;5075482;28;20307;-70
2022/06/19 02:20:53;;;;;;;7.37;4.83;;;;;;;16.50;72.22;97493.53;5074632;28;20250;-71
2022/06/19 02:23:30;;;;;;;5.40;4.90;;;;;;;16.10;73.02;97476.78;5074053;28;20679;-70
2022/06/19 02:25:58;;;;;;;5.20;4.70;;;;;;;16.19;73.15;97502.38;5072568;28;20278;-69
2022/06/19 02:28:28;;;;;;;5.70;5.07;;;;;;;16.27;73.01;97502.75;5068055;28;20672;-69
2022/06/19 02:30:55;;;;;;;7.40;4.87;;;;;;;16.33;72.92;97495.44;5067934;28;20198;-69
2022/06/19 02:33:26;;;;;;;5.10;4.57;;;;;;;16.46;72.29;97491.16;5070109;28;20197;-70
2022/06/19 02:35:53;;;;;;;7.57;4.30;;;;;;;16.64;72.09;97503.09;5070700;28;20291;-69
2022/06/19 02:38:21;;;;;;;6.10;4.70;;;;;;;16.82;71.24;97499.34;5074788;28;20574;-70
2022/06/19 02:41:23;;;;;;;7.30;4.50;;;;;;;16.50;72.19;97510.97;5036895;28;20558;-69
2022/06/19 02:43:50;;;;;;;7.40;4.80;;;;;;;16.40;72.88;97509.84;5068916;28;20203;-69
2022/06/19 02:46:17;;;;;;;8.53;5.20;;;;;;;16.32;72.64;97515.53;5070316;28;20228;-69
2022/06/19 02:48:44;;;;;;;6.10;5.20;;;;;;;16.16;73.54;97499.09;5069565;28;20193;-69
2022/06/19 02:51:11;;;;;;;5.90;4.73;;;;;;;16.40;73.52;97500.22;5069641;28;20197;-69
2022/06/19 02:53:38;;;;;;;5.00;4.40;;;;;;;16.43;73.01;97507.00;5070509;28;20201;-69
2022/06/19 02:56:05;;;;;;;6.43;5.20;;;;;;;16.13;73.78;97492.28;5068813;28;20700;-70
2022/06/19 02:58:32;;;;;;;5.53;4.63;;;;;;;16.06;74.09;97504.03;5070238;28;20649;-70
2022/06/19 03:00:59;;;;;;;7.53;5.27;;;;;;;16.07;74.61;97495.25;5068484;28;20595;-70
2022/06/19 03:03:35;;;;;;;5.17;4.67;;;;;;;16.28;74.04;97493.97;5069792;28;20738;-69
2022/06/19 03:06:04;;;;;;;6.50;4.70;;;;;;;16.23;73.41;97492.56;5069302;28;20281;-69
2022/06/19 03:08:31;;;;;;;6.13;5.10;;;;;;;16.24;73.88;97496.84;5069215;28;20204;-70
2022/06/19 03:10:58;;;;;;;6.17;4.57;;;;;;;16.16;74.34;97497.31;5069893;28;20612;-70
2022/06/19 03:13:26;;;;;;;5.33;4.83;;;;;;;16.32;74.25;97496.41;5075817;28;20197;-70
2022/06/19 03:16:07;;;;;;;6.47;4.60;;;;;;;16.30;73.80;97494.69;5089660;28;20198;-69
2022/06/19 03:18:36;;;;;;;7.33;4.70;;;;;;;16.52;73.46;97493.41;5086170;28;20629;-70
2022/06/19 03:21:04;;;;;;;5.70;4.33;;;;;;;16.63;72.52;97478.72;5089709;28;20253;-70
2022/06/19 03:23:31;;;;;;;6.70;4.77;;;;;;;16.67;72.54;97479.41;5071292;28;20643;-71
2022/06/19 03:25:58;;;;;;;4.67;4.20;;;;;;;16.71;72.14;97481.69;5088662;28;20274;-70
2022/06/19 03:28:25;;;;;;;5.00;4.50;;;;;;;16.30;72.91;97501.69;5071674;28;20200;-70
2022/06/19 03:30:56;;;;;;;4.90;4.50;;;;;;;16.43;72.98;97481.72;5069746;28;20614;-70
2022/06/19 03:33:23;;;;;;;4.70;4.20;;;;;;;16.61;72.05;97472.75;5090006;28;20196;-70
2022/06/19 03:35:52;;;;;;;5.40;4.90;;;;;;;16.62;71.76;97491.91;5087970;28;20257;-70
2022/06/19 03:38:20;;;;;;;4.93;4.43;;;;;;;16.37;72.26;97489.09;5089312;28;20258;-70
2022/06/19 03:40:47;;;;;;;5.53;4.60;;;;;;;16.40;72.60;97476.69;5089015;28;20201;-71
2022/06/19 03:43:14;;;;;;;6.53;4.90;;;;;;;16.44;72.24;97482.56;5088154;28;20192;-71
2022/06/19 03:45:41;;;;;;;4.80;4.27;;;;;;;16.92;69.91;97477.72;5089711;28;20206;-71
2022/06/19 03:48:11;;;;;;;6.03;4.63;;;;;;;17.71;67.60;97478.63;5069551;28;20193;-71
2022/06/19 03:50:39;;;;;;;6.23;4.60;;;;;;;18.17;66.16;97470.25;5088985;28;20228;-71
2022/06/19 03:53:06;;;;;;;5.40;4.63;;;;;;;18.86;64.20;97481.03;5087696;28;20208;-70
2022/06/19 03:55:34;;;;;;;5.53;4.97;;;;;;;19.39;61.93;97478.00;5088908;28;20186;-70
2022/06/19 03:58:01;;;;;;;7.27;4.90;;;;;;;19.87;60.96;97477.91;5088674;28;20190;-70
2022/06/19 04:00:28;;;;;;;5.83;4.27;;;;;;;20.14;59.51;97479.28;5087894;28;20691;-70
2022/06/19 04:02:55;;;;;;;5.83;4.60;;;;;;;20.28;58.69;97479.06;5089188;28;20200;-70
2022/06/19 04:05:23;;;;;;;7.73;4.53;;;;;;;20.45;58.68;97476.91;5087437;28;20789;-70
2022/06/19 04:07:50;;;;;;;5.23;3.73;;;;;;;20.44;58.30;97497.16;5088223;28;20220;-70
2022/06/19 04:10:20;;;;;;;5.33;4.00;;;;;;;20.53;58.47;97488.53;5072031;28;20205;-71
2022/06/19 04:12:52;;;;;;;4.40;3.80;;;;;;;21.08;56.46;97490.28;5068700;28;20252;-70
2022/06/19 04:15:19;;;;;;;4.57;3.80;;;;;;;20.98;56.79;97487.50;5068283;28;20205;-71
2022/06/19 04:17:46;;;;;;;5.07;4.13;;;;;;;21.21;56.77;97475.16;5067786;28;20281;-71
2022/06/19 04:20:13;;;;;;;6.70;3.83;;;;;;;21.50;55.80;97481.50;5086406;28;20844;-70
2022/06/19 04:22:40;;;;;;;3.80;3.30;;;;;;;22.02;54.54;97467.47;5071764;28;20241;-71
2022/06/19 04:25:13;;;;;;;6.83;3.53;;;;;;;22.13;54.17;97485.88;5080729;28;20214;-70
2022/06/19 04:27:44;;;;;;;5.53;4.13;;;;;;;22.40;53.66;97487.97;5086383;28;20747;-70
2022/06/19 04:30:12;;;;;;;6.40;4.00;;;;;;;22.31;54.67;97475.53;5067991;28;20694;-71
2022/06/19 04:32:40;;;;;;;5.70;3.97;;;;;;;22.88;52.62;97481.06;5069587;28;20210;-71
2022/06/19 04:35:07;;;;;;;3.97;3.07;;;;;;;23.10;52.29;97486.13;5079628;28;20200;-71
2022/06/19 04:37:34;;;;;;;3.57;3.27;;;;;;;23.39;51.62;97486.19;5070233;28;20195;-70
2022/06/19 04:40:01;;;;;;;5.73;4.10;;;;;;;23.65;50.74;97487.31;5086816;28;20201;-70
2022/06/19 04:42:29;;;;;;;4.43;3.53;;;;;;;23.90;50.21;97484.09;5065346;28;20264;-70
2022/06/19 04:44:55;;;;;;;5.13;3.20;;;;;;;24.10;49.47;97485.75;5082929;28;20201;-71
2022/06/19 04:47:22;;;;;;;3.43;3.03;;;;;;;23.87;49.77;97483.53;5087817;28;20764;-71
2022/06/19 04:49:50;;;;;;;3.77;3.13;;;;;;;24.27;49.04;97480.69;5087920;28;20221;-70
2022/06/19 04:52:17;;;;;;;3.03;2.80;;;;;;;24.44;48.80;97474.66;5086986;28;20202;-70
2022/06/19 04:54:45;;;;;;;5.30;2.87;;;;;;;24.12;47.81;97475.03;5087835;28;20204;-71
2022/06/19 04:57:12;;;;;;;3.77;2.37;;;;;;;23.95;46.92;97481.00;5086531;28;20251;-70
2022/06/19 04:59:40;;;;;;;4.63;2.70;;;;;;;23.64;47.76;97484.81;5087673;28;20622;-70
2022/06/19 05:02:06;;;;;;;4.27;2.43;;;;;;;23.58;47.86;97477.41;5086212;28;20204;-71
2022/06/19 05:04:34;;;;;;;4.80;2.50;;;;;;;23.75;47.88;97469.63;5087613;28;20681;-70
2022/06/19 05:07:00;;;;;;;2.40;2.20;;;;;;;23.56;47.32;97485.50;5087142;28;20735;-71
2022/06/19 05:09:28;;;;;;;4.80;2.47;;;;;;;23.28;48.58;97487.13;5072738;28;20209;-70
2022/06/19 05:11:55;;;;;;;3.47;2.17;;;;;;;23.11;49.16;97479.03;5067261;28;20292;-70
2022/06/19 05:14:22;;;;;;;2.33;2.13;;;;;;;23.33;49.01;97478.81;5066021;28;20249;-70
2022/06/19 05:16:50;;;;;;;4.53;2.67;;;;;;;23.13;47.53;97483.22;5067902;28;20197;-72
2022/06/19 05:19:17;;;;;;;2.80;2.50;;;;;;;23.25;47.73;97487.41;5066165;28;20209;-72
2022/06/19 05:21:45;;;;;;;2.90;2.50;;;;;;;23.31;47.84;97491.28;5067357;28;20222;-72
2022/06/19 05:24:12;;;;;;;4.97;2.00;;;;;;;23.40;46.54;97490.50;5066659;28;20240;-71
2022/06/19 05:26:39;;;;;;;2.23;2.10;;;;;;;23.26;47.05;97489.09;5066331;28;20294;-72
2022/06/19 05:29:06;;;;;;;2.93;2.20;;;;;;;23.70;47.26;97503.59;5067469;28;20712;-72
2022/06/19 05:31:34;;;;;;;2.63;2.20;;;;;;;23.85;46.30;97509.28;5065768;28;20278;-72
2022/06/19 05:34:01;;;;;;;2.47;1.83;;;;;;;23.57;45.77;97508.34;5067146;28;20200;-72
2022/06/19 05:36:37;;;;;;;3.07;2.30;;;;;;;23.91;45.83;97512.22;5066040;28;20200;-72
2022/06/19 05:39:08;;;;;;;3.37;2.70;;;;;;;24.21;44.78;97509.41;5067154;28;20191;-72
2022/06/19 05:41:39;;;;;;;3.83;2.30;;;;;;;24.44;43.84;97504.59;5066821;28;20228;-73
2022/06/19 05:44:06;;;;;;;3.77;2.10;;;;;;;24.46;43.56;97507.94;5065983;28;20736;-72
2022/06/19 05:46:33;;;;;;;3.90;2.73;;;;;;;24.23;44.05;97510.09;5067392;28;20223;-72
2022/06/19 05:49:01;;;;;;;3.73;1.70;;;;;;;24.09;44.17;97507.91;5065620;28;20198;-72
2022/06/19 05:51:28;;;;;;;2.97;2.13;;;;;;;24.54;43.54;97507.22;5067147;28;20198;-72
2022/06/19 05:53:57;;;;;;;3.40;2.20;;;;;;;24.72;42.83;97489.59;5075745;28;20257;-72
2022/06/19 05:56:26;;;;;;;2.00;1.90;;;;;;;24.73;41.31;97515.13;5067036;28;20223;-71
2022/06/19 05:58:53;;;;;;;3.83;2.10;;;;;;;24.60;41.91;97514.59;5071254;28;20211;-72
2022/06/19 06:01:22;;;;;;;2.77;1.90;;;;;;;24.67;41.33;97513.03;5066101;28;20196;-71
2022/06/19 06:03:50;;;;;;;3.17;1.80;;;;;;;24.66;40.26;97514.84;5049206;28;20200;-71
2022/06/19 06:06:25;;;;;;;2.60;1.40;;;;;;;24.98;39.43;97509.16;5067729;28;20197;-72
2022/06/19 06:08:53;;;;;;;1.97;1.70;;;;;;;25.29;39.32;97520.25;5070990;28;20276;-72
2022/06/19 06:11:21;;;;;;;2.23;1.60;;;;;;;25.11;40.97;97519.41;5069170;28;20200;-72
2022/06/19 06:13:49;;;;;;;2.10;1.90;;;;;;;25.02;40.88;97515.81;5079859;28;20625;-72
2022/06/19 06:16:18;;;;;;;2.67;2.47;;;;;;;25.16;40.59;97520.66;5091028;28;20211;-72
2022/06/19 06:18:46;;;;;;;2.73;2.00;;;;;;;24.74;41.27;97512.34;5089648;28;20216;-72
2022/06/19 06:21:20;;;;;;;1.87;1.77;;;;;;;24.47;41.69;97530.81;5072810;28;20203;-72
2022/06/19 06:23:48;;;;;;;5.63;1.80;;;;;;;24.66;41.51;97514.00;5089277;28;20253;-72
2022/06/19 06:26:27;;;;;;;2.00;1.60;;;;;;;24.64;40.99;97527.41;5090602;28;20262;-72
2022/06/19 06:28:57;;;;;;;4.67;1.90;;;;;;;24.37;41.82;97518.56;5090355;28;20204;-73
2022/06/19 06:31:24;;;;;;;2.30;1.70;;;;;;;24.54;39.46;97512.53;5089527;28;20198;-72
2022/06/19 06:33:57;;;;;;;2.10;1.50;;;;;;;24.78;39.69;97492.53;5090739;28;20665;-72
2022/06/19 06:36:25;;;;;;;3.70;1.70;;;;;;;25.26;38.06;97504.66;5089160;28;20213;-73
2022/06/19 06:38:52;;;;;;;3.47;1.70;;;;;;;25.44;40.19;97487.81;5090421;28;20587;-72
2022/06/19 06:41:20;;;;;;;3.13;2.03;;;;;;;25.66;40.27;97495.31;5088738;28;20210;-73
2022/06/19 06:43:47;;;;;;;2.87;1.60;;;;;;;25.50;39.73;97500.47;5090065;28;20706;-72
2022/06/19 06:46:25;;;;;;;1.70;1.60;;;;;;;25.24;40.86;97510.13;5072184;28;20661;-72
2022/06/19 06:48:55;;;;;;;8.40;2.07;;;;;;;24.73;42.16;97500.06;5088746;28;20234;-72
2022/06/19 06:51:26;;;;;;;5.37;1.80;;;;;;;24.58;39.04;97500.66;5090271;28;20244;-72
2022/06/19 06:53:54;;;;;;;3.23;1.23;;;;;;;24.61;38.24;97503.00;5088856;28;20198;-72
2022/06/19 06:56:21;;;;;;;3.10;1.63;;;;;;;24.48;38.19;97505.16;5090085;28;20592;-73
2022/06/19 06:58:48;;;;;;;4.07;1.53;;;;;;;24.68;37.87;97504.09;5089355;28;20198;-73
2022/06/19 07:01:20;;;;;;;1.70;1.40;;;;;;;24.57;37.07;97491.03;5089631;28;20202;-74
2022/06/19 07:03:52;;;;;;;3.10;1.40;;;;;;;24.81;38.30;97497.50;5090087;28;20544;-73
2022/06/19 07:06:19;;;;;;;3.00;1.50;;;;;;;24.67;39.20;97508.56;5088541;28;20639;-73
2022/06/19 07:08:46;;;;;;;3.63;1.30;;;;;;;24.34;36.54;97500.34;5089995;28;20223;-73
2022/06/19 07:11:34;;;;;;;2.00;1.50;;;;;;;24.70;35.56;97503.00;5088574;28;21071;-73
2022/06/19 07:14:01;;;;;;;2.40;1.33;;;;;;;24.30;37.38;97509.53;5090126;28;20195;-71
2022/06/19 07:16:28;;;;;;;1.40;1.20;;;;;;;24.47;36.89;97503.47;5089289;28;20199;-73
2022/06/19 07:18:55;;;;;;;4.37;1.47;;;;;;;24.68;36.98;97504.09;5088946;28;20256;-72
2022/06/19 07:21:22;;;;;;;4.40;1.77;;;;;;;24.92;37.62;97504.44;5089447;28;20755;-73
2022/06/19 07:23:49;;;;;;;3.43;1.80;;;;;;;24.89;36.80;97499.44;5087928;28;20234;-73
2022/06/19 07:26:19;;;;;;;2.60;2.30;;;;;;;25.20;35.46;97506.09;5089502;28;20222;-74
2022/06/19 07:28:46;;;;;;;1.63;1.20;;;;;;;25.10;36.08;97501.84;5087683;28;20215;-71
2022/06/19 07:31:22;;;;;;;1.50;1.40;;;;;;;25.07;35.47;97497.66;5088947;28;20203;-72
2022/06/19 07:33:49;;;;;;;2.50;1.90;;;;;;;24.95;36.84;97506.81;5089635;28;20279;-73
2022/06/19 07:36:19;;;;;;;3.57;1.60;;;;;;;25.02;36.34;97511.34;5088025;28;20263;-73
2022/06/19 07:38:46;;;;;;;1.40;1.30;;;;;;;24.85;35.12;97509.47;5086649;28;20609;-71
2022/06/19 07:41:14;;;;;;;2.03;1.20;;;;;;;25.01;34.15;97503.56;5067737;28;20201;-72
2022/06/19 07:43:43;;;;;;;1.40;1.30;;;;;;;25.07;35.77;97507.44;5069149;28;20212;-72
2022/06/19 07:46:11;;;;;;;2.93;1.60;;;;;;;25.18;37.02;97508.06;5067838;28;20676;-71
2022/06/19 07:51:26;;;;;;;3.43;1.30;;;;;;;24.71;35.05;97507.28;5050853;28;20227;-72
2022/06/19 07:53:59;;;;;;;1.40;1.30;;;;;;;24.52;37.02;97510.03;5067302;28;20222;-72
2022/06/19 07:56:27;;;;;;;2.23;1.60;;;;;;;24.53;35.77;97506.38;5068954;28;20238;-72
2022/06/19 07:58:54;;;;;;;1.57;1.10;;;;;;;24.47;34.94;97498.19;5067032;28;20210;-70
2022/06/19 08:01:21;;;;;;;1.00;1.00;;;;;;;24.56;35.57;97511.41;5068580;28;20257;-71
2022/06/19 08:03:48;;;;;;;1.17;1.17;;;;;;;24.67;34.32;97505.06;5068211;28;20196;-71
2022/06/19 08:06:19;;;;;;;2.30;1.43;;;;;;;24.77;34.74;97509.38;5067759;28;20264;-70
2022/06/19 08:08:47;;;;;;;1.30;1.20;;;;;;;24.84;34.32;97525.53;5068656;28;20319;-71
2022/06/19 08:11:14;;;;;;;3.10;1.40;;;;;;;24.93;35.23;97516.72;5070527;28;20203;-71
2022/06/19 08:13:41;;;;;;;3.23;1.40;;;;;;;25.00;34.44;97510.66;5088724;28;20610;-71
2022/06/19 08:16:10;;;;;;;2.30;1.50;;;;;;;24.71;34.52;97506.47;5086920;28;20206;-71
2022/06/19 08:18:38;;;;;;;2.47;1.33;;;;;;;24.91;33.26;97508.09;5084366;28;20212;-72
2022/06/19 08:21:06;;;;;;;2.30;1.60;;;;;;;25.17;34.67;97514.34;5049926;28;20200;-73
2022/06/19 08:23:33;;;;;;;1.60;1.20;;;;;;;25.13;33.03;97512.97;5049369;28;20226;-72
2022/06/19 08:26:00;;;;;;;2.73;1.57;;;;;;;25.28;34.55;97519.44;5068413;28;20226;-73
2022/06/19 08:30:58;;;;;;;1.57;1.37;;;;;;;25.12;36.13;97502.53;5068349;28;20197;-72
2022/06/19 08:33:25;;;;;;;1.90;1.40;;;;;;;25.20;35.92;97511.41;5066499;28;20195;-73
2022/06/19 08:35:56;;;;;;;2.30;1.40;;;;;;;24.83;36.23;97516.75;5050195;28;20203;-73
2022/06/19 08:38:28;;;;;;;1.40;1.30;;;;;;;24.76;36.31;97498.94;5070935;28;20215;-73
2022/06/19 08:41:33;;;;;;;2.70;1.63;;;;;;;24.77;36.64;97500.63;5087043;28;20207;-73
2022/06/19 08:44:37;;;;;;;1.40;1.20;;;;;;;25.03;35.48;97498.94;5088577;28;20202;-73
2022/06/19 08:47:35;;;;;;;2.83;1.33;;;;;;;25.03;34.86;97491.00;5088083;28;20198;-73
2022/06/19 08:50:17;;;;;;;2.20;1.60;;;;;;;24.85;35.09;97492.78;5086551;28;20573;-72
2022/06/19 08:53:07;;;;;;;1.83;1.60;;;;;;;24.75;35.57;97486.69;5088356;28;20661;-72
2022/06/19 08:55:34;;;;;;;1.53;1.20;;;;;;;24.79;34.94;97485.41;5075133;28;20258;-73
2022/06/19 08:58:13;;;;;;;1.53;1.27;;;;;;;24.62;36.01;97486.16;5087554;28;20792;-73
2022/06/19 09:00:53;;;;;;;1.30;1.20;;;;;;;24.82;36.02;97477.16;5087972;28;20193;-73
2022/06/19 09:07:13;;;;;;;1.73;1.50;;;;;;;25.25;35.63;97489.72;4984209;28;20749;-72
2022/06/19 09:10:15;;;;;;;2.70;1.60;;;;;;;24.93;35.08;97498.16;5087916;28;20198;-73
2022/06/19 09:13:14;;;;;;;1.43;1.30;;;;;;;25.01;33.86;97487.66;5080692;28;20201;-72
2022/06/19 09:15:59;;;;;;;1.57;1.47;;;;;;;24.89;34.07;97489.66;5052149;28;20293;-71
2022/06/19 09:18:36;;;;;;;1.93;1.20;;;;;;;24.92;34.73;97489.38;5087822;28;20194;-70
2022/06/19 09:21:10;;;;;;;3.23;1.60;;;;;;;24.82;34.58;97498.34;5085996;28;20201;-70
2022/06/19 09:23:49;;;;;;;1.63;1.40;;;;;;;24.81;34.76;97491.41;5086881;28;20745;-71
2022/06/19 09:26:45;;;;;;;2.43;1.90;;;;;;;24.95;35.52;97488.25;5087418;28;20196;-71
2022/06/19 09:29:28;;;;;;;1.90;1.50;;;;;;;25.02;34.69;97486.66;5054539;28;20233;-72
2022/06/19 09:32:03;;;;;;;1.67;1.27;;;;;;;25.12;35.14;97473.38;5068232;28;20191;-72
2022/06/19 09:34:44;;;;;;;2.10;1.83;;;;;;;25.41;34.70;97474.84;5087527;28;20191;-72
2022/06/19 09:37:25;;;;;;;1.30;1.20;;;;;;;25.37;34.53;97468.16;5067212;28;20274;-71
2022/06/19 09:40:02;;;;;;;1.57;1.47;;;;;;;24.96;33.30;97481.94;5088808;28;20292;-72
2022/06/19 09:42:43;;;;;;;1.80;1.23;;;;;;;24.69;34.14;97481.94;5090206;28;20188;-72
2022/06/19 09:45:16;;;;;;;1.83;1.30;;;;;;;24.71;34.61;97477.34;5091212;28;20558;-72
2022/06/19 09:47:50;;;;;;;2.03;1.57;;;;;;;25.14;33.95;97461.63;5074124;28;20769;-74
2022/06/19 09:50:52;;;;;;;3.33;1.53;;;;;;;24.98;34.62;97445.53;5071269;28;20182;-71
2022/06/19 09:53:28;;;;;;;1.87;1.40;;;;;;;25.39;34.41;97463.53;5091627;28;20202;-72
2022/06/19 09:56:23;;;;;;;1.23;1.10;;;;;;;25.24;33.67;97458.91;5091246;28;20195;-72
2022/06/19 09:59:16;;;;;;;1.77;1.40;;;;;;;25.26;33.67;97464.91;5089728;28;20674;-71
2022/06/19 10:01:47;;;;;;;2.10;1.30;;;;;;;24.94;34.60;97465.38;5037388;28;20208;-71
2022/06/19 10:04:46;;;;;;;1.73;1.30;;;;;;;25.30;35.47;97456.50;5070560;28;20192;-72
2022/06/19 10:07:29;;;;;;;2.50;1.47;;;;;;;25.35;34.55;97475.41;5074263;28;20199;-72
2022/06/19 10:10:06;;;;;;;1.53;1.43;;;;;;;25.12;33.46;97465.41;5073343;28;20224;-73
2022/06/19 10:12:38;;;;;;;1.50;1.37;;;;;;;25.32;34.39;97459.00;5087512;28;20203;-72
2022/06/19 10:15:13;;;;;;;1.73;1.40;;;;;;;25.21;35.13;97446.78;5081285;28;20208;-73
2022/06/19 10:17:47;;;;;;;2.00;1.60;;;;;;;25.22;33.19;97445.81;5062987;28;20892;-73
2022/06/19 10:20:17;;;;;;;1.83;1.43;;;;;;;25.22;34.33;97463.53;5062569;28;20725;-73
2022/06/19 10:23:20;;;;;;;2.03;1.60;;;;;;;25.14;33.56;97461.63;5079933;28;20242;-72
2022/06/19 10:25:53;;;;;;;2.80;1.80;;;;;;;25.45;33.90;97448.88;5073859;28;20198;-73
2022/06/19 10:28:49;;;;;;;2.63;1.63;;;;;;;25.63;33.94;97458.50;5093867;28;20245;-73
2022/06/19 10:31:41;;;;;;;2.53;1.40;;;;;;;25.38;33.52;97440.66;5086295;28;20207;-72
2022/06/19 10:34:36;;;;;;;1.70;1.50;;;;;;;25.52;34.57;97449.91;5070503;28;20702;-73
2022/06/19 10:37:31;;;;;;;2.50;1.60;;;;;;;25.69;34.10;97435.81;5077776;28;20203;-72
2022/06/19 10:40:23;;;;;;;2.57;1.60;;;;;;;25.53;34.04;97460.38;5065551;28;20231;-72
2022/06/19 10:43:09;;;;;;;2.03;1.53;;;;;;;25.07;35.07;97449.94;5088053;28;20211;-72
2022/06/19 10:45:50;;;;;;;1.90;1.73;;;;;;;24.90;35.46;97442.78;5100733;28;20304;-72
2022/06/19 10:48:24;;;;;;;3.13;1.70;;;;;;;25.36;34.64;97434.66;5093707;28;20223;-72
2022/06/19 10:51:07;;;;;;;3.43;1.63;;;;;;;25.45;33.15;97443.56;5087562;28;20203;-72
2022/06/19 10:54:11;;;;;;;3.07;1.30;;;;;;;24.82;33.13;97440.06;5054655;28;20200;-72
2022/06/19 10:56:57;;;;;;;1.37;1.20;;;;;;;24.53;33.79;97440.19;5071621;28;20197;-72
2022/06/19 10:59:25;;;;;;;2.30;1.50;;;;;;;24.78;34.02;97422.78;5072402;28;20208;-72
2022/06/19 11:05:02;;;;;;;3.03;1.57;;;;;;;25.81;34.02;97421.31;5076656;28;20684;-73
2022/06/19 11:07:30;;;;;;;4.80;1.50;;;;;;;26.04;35.10;97422.47;5051618;28;20215;-71
2022/06/19 11:10:13;;;;;;;2.17;1.50;;;;;;;26.37;33.53;97411.06;5070213;28;20294;-72
2022/06/19 11:12:47;;;;;;;1.60;1.40;;;;;;;25.63;32.36;97404.59;5078751;28;20260;-72
2022/06/19 11:15:28;;;;;;;1.40;1.30;;;;;;;25.43;33.35;97376.59;5090302;28;20229;-72
2022/06/19 11:18:20;;;;;;;2.13;1.30;;;;;;;25.65;32.84;97418.53;5070004;28;20208;-72
2022/06/19 11:21:21;;;;;;;1.60;1.50;;;;;;;25.07;34.37;97436.69;5068404;28;20195;-72
2022/06/19 11:23:48;;;;;;;2.03;1.50;;;;;;;24.97;34.86;97417.38;5069622;28;20307;-72
2022/06/19 11:26:16;;;;;;;3.03;1.73;;;;;;;25.14;34.69;97416.56;5068452;28;20201;-72
2022/06/19 11:28:47;;;;;;;1.50;1.40;;;;;;;25.27;34.32;97409.06;5069450;28;20227;-73
2022/06/19 11:31:19;;;;;;;1.43;1.33;;;;;;;25.28;33.78;97431.09;5069757;28;20288;-73
2022/06/19 11:33:48;;;;;;;2.13;1.50;;;;;;;25.48;32.76;97411.41;5068090;28;20195;-73
2022/06/19 11:36:32;;;;;;;2.03;1.63;;;;;;;25.65;33.51;97408.75;5070043;28;20202;-72
2022/06/19 11:39:01;;;;;;;2.97;1.63;;;;;;;25.80;33.57;97415.16;5049660;28;20699;-72
2022/06/19 11:41:32;;;;;;;1.40;1.30;;;;;;;25.60;33.17;97418.16;5073443;28;20208;-72
2022/06/19 11:43:59;;;;;;;1.63;1.20;;;;;;;25.63;32.36;97415.19;5088473;28;20214;-73
2022/06/19 11:46:26;;;;;;;1.20;1.10;;;;;;;26.00;32.29;97417.63;5088288;28;20190;-72
2022/06/19 11:48:54;;;;;;;4.23;1.50;;;;;;;25.90;32.12;97403.63;5089574;28;20226;-72
2022/06/19 11:51:23;;;;;;;1.80;1.60;;;;;;;26.11;31.83;97417.41;5088006;28;20200;-71
2022/06/19 11:53:58;;;;;;;1.43;1.33;;;;;;;25.99;31.07;97406.16;5089331;28;20249;-72
2022/06/19 11:56:35;;;;;;;1.43;1.33;;;;;;;26.48;30.84;97408.09;5087928;28;20210;-72
2022/06/19 11:59:20;;;;;;;1.57;1.47;;;;;;;25.80;32.90;97399.22;5088560;28;20204;-71
2022/06/19 12:01:46;;;;;;;3.23;1.80;;;;;;;25.73;32.82;97392.91;5089155;28;20687;-73
2022/06/19 12:04:31;;;;;;;1.80;1.67;;;;;;;25.61;32.27;97394.13;5068354;28;20691;-71
2022/06/19 12:07:01;;;;;;;2.00;1.50;;;;;;;25.60;33.35;97378.34;5088797;28;20208;-71
2022/06/19 12:09:38;;;;;;;2.27;1.53;;;;;;;25.82;33.49;97389.28;5087734;28;20231;-73
2022/06/19 12:12:18;;;;;;;2.40;1.40;;;;;;;26.18;33.39;97383.91;5088006;28;20629;-71
2022/06/19 12:14:50;;;;;;;1.80;1.53;;;;;;;26.16;32.99;97391.19;5088928;28;20200;-71